createdAt,value
2016-10-20T00:00:29.926Z,1007.75
2016-10-20T00:01:29.983Z,1007.79
2016-10-20T00:02:29.941Z,1007.79
2016-10-20T00:03:29.948Z,1007.8
2016-10-20T00:04:29.955Z,1007.78
2016-10-20T00:05:29.961Z,1007.8
2016-10-20T00:06:29.968Z,1007.8
2016-10-20T00:07:29.974Z,1007.78
2016-10-20T00:08:29.981Z,1007.77
2016-10-20T00:09:29.989Z,1007.79
2016-10-20T00:10:30.042Z,1007.77
2016-10-20T00:11:30.000Z,1007.75
2016-10-20T00:12:30.009Z,1007.74
2016-10-20T00:13:30.014Z,1007.76
2016-10-20T00:14:30.021Z,1007.75
2016-10-20T00:15:30.028Z,1007.75
2016-10-20T00:16:30.034Z,1007.71
2016-10-20T00:17:30.041Z,1007.72
2016-10-20T00:18:30.047Z,1007.69
2016-10-20T00:19:30.054Z,1007.69
2016-10-20T00:20:30.062Z,1007.72
2016-10-20T00:21:30.069Z,1007.7
2016-10-20T00:22:30.076Z,1007.68
2016-10-20T00:23:30.132Z,1007.67
2016-10-20T00:24:30.090Z,1007.66
2016-10-20T00:25:30.095Z,1007.62
2016-10-20T00:26:30.351Z,1007.63
2016-10-20T00:27:30.112Z,1007.58
2016-10-20T00:28:30.118Z,1007.62
2016-10-20T00:29:30.125Z,1007.62
2016-10-20T00:30:30.131Z,1007.62
2016-10-20T00:31:30.139Z,1007.59
2016-10-20T00:32:30.144Z,1007.61
2016-10-20T00:33:30.153Z,1007.6
2016-10-20T00:34:30.158Z,1007.6
2016-10-20T00:35:30.166Z,1007.63
2016-10-20T00:36:30.172Z,1007.6
2016-10-20T00:37:30.228Z,1007.61
2016-10-20T00:38:30.187Z,1007.57
2016-10-20T00:39:30.194Z,1007.6
2016-10-20T00:40:30.200Z,1007.6
2016-10-20T00:41:30.207Z,1007.6
2016-10-20T00:42:30.262Z,1007.59
2016-10-20T00:43:30.221Z,1007.57
2016-10-20T00:44:30.228Z,1007.56
2016-10-20T00:45:30.233Z,1007.54
2016-10-20T00:46:30.239Z,1007.5
2016-10-20T00:47:30.248Z,1007.52
2016-10-20T00:48:30.257Z,1007.5
2016-10-20T00:49:30.263Z,1007.47
2016-10-20T00:50:30.317Z,1007.45
2016-10-20T00:51:30.275Z,1007.42
2016-10-20T00:52:30.282Z,1007.42
2016-10-20T00:53:30.290Z,1007.4
2016-10-20T00:54:30.295Z,1007.4
2016-10-20T00:55:30.303Z,1007.4
2016-10-20T00:56:30.309Z,1007.41
2016-10-20T00:57:30.318Z,1007.33
2016-10-20T00:58:30.373Z,1007.33
2016-10-20T00:59:30.330Z,1007.29
2016-10-20T01:00:30.338Z,1007.28
2016-10-20T01:01:30.345Z,1007.27
2016-10-20T01:02:30.352Z,1007.28
2016-10-20T01:03:30.360Z,1007.26
2016-10-20T01:04:30.367Z,1007.29
2016-10-20T01:05:30.372Z,1007.24
2016-10-20T01:06:30.381Z,1007.24
2016-10-20T01:07:30.387Z,1007.25
2016-10-20T01:08:30.396Z,1007.23
2016-10-20T01:09:30.399Z,1007.24
2016-10-20T01:10:30.409Z,1007.24
2016-10-20T01:11:30.413Z,1007.26
2016-10-20T01:12:30.419Z,1007.25
2016-10-20T01:13:30.427Z,1007.25
2016-10-20T01:14:30.433Z,1007.2
2016-10-20T01:15:30.441Z,1007.19
2016-10-20T01:16:30.448Z,1007.18
2016-10-20T01:17:30.454Z,1007.2
2016-10-20T01:18:30.463Z,1007.18
2016-10-20T01:19:30.470Z,1007.16
2016-10-20T01:20:30.524Z,1007.17
2016-10-20T01:21:30.483Z,1007.17
2016-10-20T01:22:30.490Z,1007.15
2016-10-20T01:23:30.496Z,1007.13
2016-10-20T01:24:30.503Z,1007.13
2016-10-20T01:25:30.510Z,1007.08
2016-10-20T01:26:30.516Z,1007.11
2016-10-20T01:27:30.523Z,1007.05
2016-10-20T01:28:30.530Z,1007.08
2016-10-20T01:29:30.585Z,1007.03
2016-10-20T01:30:30.542Z,1007.05
2016-10-20T01:31:30.549Z,1007.02
2016-10-20T01:32:30.556Z,1007.03
2016-10-20T01:33:30.564Z,1007
2016-10-20T01:34:30.571Z,1007
2016-10-20T01:35:30.576Z,1006.98
2016-10-20T01:36:30.583Z,1006.91
2016-10-20T01:37:30.590Z,1006.89
2016-10-20T01:38:30.599Z,1006.91
2016-10-20T01:39:30.604Z,1006.88
2016-10-20T01:40:30.861Z,1006.87
2016-10-20T01:41:30.620Z,1006.86
2016-10-20T01:42:30.627Z,1006.86
2016-10-20T01:43:30.633Z,1006.85
2016-10-20T01:44:30.646Z,1006.82
2016-10-20T01:45:30.647Z,1006.85
2016-10-20T01:46:30.701Z,1006.87
2016-10-20T01:47:30.659Z,1006.81
2016-10-20T01:48:30.668Z,1006.83
2016-10-20T01:49:30.673Z,1006.81
2016-10-20T01:50:30.680Z,1006.82
2016-10-20T01:51:30.735Z,1006.89
2016-10-20T01:52:30.692Z,1006.81
2016-10-20T01:53:30.748Z,1006.84
2016-10-20T01:54:30.706Z,1006.83
2016-10-20T01:55:30.713Z,1006.81
2016-10-20T01:56:30.718Z,1006.79
2016-10-20T01:57:30.725Z,1006.76
2016-10-20T01:58:30.784Z,1006.76
2016-10-20T01:59:30.741Z,1006.76
2016-10-20T02:00:30.745Z,1006.73
2016-10-20T02:01:30.753Z,1006.66
2016-10-20T02:02:30.758Z,1006.64
2016-10-20T02:03:30.767Z,1006.64
2016-10-20T02:04:30.773Z,1006.61
2016-10-20T02:05:30.778Z,1006.53
2016-10-20T02:06:30.785Z,1006.54
2016-10-20T02:07:30.842Z,1006.51
2016-10-20T02:08:30.799Z,1006.48
2016-10-20T02:09:30.806Z,1006.5
2016-10-20T02:10:30.836Z,1006.51
2016-10-20T02:11:30.819Z,1006.52
2016-10-20T02:12:30.825Z,1006.53
2016-10-20T02:13:30.833Z,1006.53
2016-10-20T02:14:30.939Z,1006.53
2016-10-20T02:15:30.848Z,1006.54
2016-10-20T02:16:30.854Z,1006.53
2016-10-20T02:17:30.860Z,1006.56
2016-10-20T02:18:30.868Z,1006.55
2016-10-20T02:19:30.874Z,1006.55
2016-10-20T02:20:30.880Z,1006.54
2016-10-20T02:21:30.888Z,1006.56
2016-10-20T02:22:30.943Z,1006.57
2016-10-20T02:23:30.903Z,1006.53
2016-10-20T02:24:30.958Z,1006.57
2016-10-20T02:25:30.915Z,1006.56
2016-10-20T02:26:30.922Z,1006.55
2016-10-20T02:27:30.929Z,1006.52
2016-10-20T02:28:30.985Z,1006.5
2016-10-20T02:29:30.968Z,1006.47
2016-10-20T02:30:30.949Z,1006.47
2016-10-20T02:31:30.955Z,1006.47
2016-10-20T02:32:30.964Z,1006.46
2016-10-20T02:33:30.970Z,1006.45
2016-10-20T02:34:30.977Z,1006.45
2016-10-20T02:35:30.984Z,1006.44
2016-10-20T02:36:30.991Z,1006.4
2016-10-20T02:37:31.002Z,1006.43
2016-10-20T02:38:31.003Z,1006.4
2016-10-20T02:39:31.010Z,1006.35
2016-10-20T02:40:31.016Z,1006.35
2016-10-20T02:41:31.024Z,1006.34
2016-10-20T02:42:31.031Z,1006.33
2016-10-20T02:43:31.039Z,1006.36
2016-10-20T02:44:31.044Z,1006.33
2016-10-20T02:45:31.051Z,1006.34
2016-10-20T02:46:31.108Z,1006.36
2016-10-20T02:47:31.066Z,1006.35
2016-10-20T02:48:31.071Z,1006.35
2016-10-20T02:49:31.080Z,1006.32
2016-10-20T02:50:31.087Z,1006.3
2016-10-20T02:51:31.141Z,1006.26
2016-10-20T02:52:31.101Z,1006.26
2016-10-20T02:53:31.107Z,1006.24
2016-10-20T02:54:31.115Z,1006.19
2016-10-20T02:55:31.121Z,1006.19
2016-10-20T02:56:31.129Z,1006.18
2016-10-20T02:57:31.135Z,1006.16
2016-10-20T02:58:31.141Z,1006.16
2016-10-20T02:59:31.148Z,1006.13
2016-10-20T03:00:31.203Z,1006.13
2016-10-20T03:01:31.161Z,1006.14
2016-10-20T03:02:31.168Z,1006.16
2016-10-20T03:03:31.223Z,1006.11
2016-10-20T03:04:31.181Z,1006.15
2016-10-20T03:05:31.189Z,1006.12
2016-10-20T03:06:31.197Z,1006.13
2016-10-20T03:07:31.202Z,1006.09
2016-10-20T03:08:31.211Z,1006.1
2016-10-20T03:09:31.216Z,1006.07
2016-10-20T03:10:31.223Z,1006.09
2016-10-20T03:11:31.230Z,1006.07
2016-10-20T03:12:31.238Z,1006.12
2016-10-20T03:13:31.243Z,1006.06
2016-10-20T03:14:31.249Z,1006.08
2016-10-20T03:15:31.258Z,1006.03
2016-10-20T03:16:31.261Z,1006.11
2016-10-20T03:17:31.269Z,1006.07
2016-10-20T03:18:31.277Z,1006.1
2016-10-20T03:19:31.284Z,1006.03
2016-10-20T03:20:31.288Z,1006.04
2016-10-20T03:21:31.297Z,1006.06
2016-10-20T03:22:31.308Z,1006.07
2016-10-20T03:23:31.309Z,1006.04
2016-10-20T03:24:31.316Z,1006.03
2016-10-20T03:25:31.323Z,1006.01
2016-10-20T03:26:31.329Z,1005.97
2016-10-20T03:27:31.384Z,1005.97
2016-10-20T03:28:31.392Z,1005.96
2016-10-20T03:29:31.349Z,1005.97
2016-10-20T03:30:31.406Z,1005.97
2016-10-20T03:31:31.361Z,1006
2016-10-20T03:32:31.368Z,1005.95
2016-10-20T03:33:31.376Z,1005.99
2016-10-20T03:34:31.432Z,1005.99
2016-10-20T03:35:31.387Z,1005.96
2016-10-20T03:36:31.394Z,1005.99
2016-10-20T03:37:31.402Z,1006
2016-10-20T03:38:31.409Z,1006.01
2016-10-20T03:39:31.416Z,1006
2016-10-20T03:40:31.423Z,1006.02
2016-10-20T03:41:31.430Z,1006.01
2016-10-20T03:42:31.436Z,1006.03
2016-10-20T03:43:31.443Z,1006.03
2016-10-20T03:44:31.451Z,1006.02
2016-10-20T03:45:31.457Z,1006.05
2016-10-20T03:46:31.463Z,1006.04
2016-10-20T03:47:31.469Z,1006.05
2016-10-20T03:48:31.478Z,1006.05
2016-10-20T03:49:31.483Z,1006.05
2016-10-20T03:50:31.490Z,1006.05
2016-10-20T03:51:31.498Z,1006.06
2016-10-20T03:52:31.504Z,1006.07
2016-10-20T03:53:31.509Z,1006.07
2016-10-20T03:54:31.518Z,1006.03
2016-10-20T03:55:31.525Z,1006.04
2016-10-20T03:56:31.531Z,1006.04
2016-10-20T03:57:31.538Z,1006.01
2016-10-20T03:58:31.595Z,1006
2016-10-20T03:59:31.552Z,1006
2016-10-20T04:00:31.558Z,1005.99
2016-10-20T04:01:31.566Z,1005.99
2016-10-20T04:02:31.573Z,1005.99
2016-10-20T04:03:31.580Z,1005.98
2016-10-20T04:04:31.587Z,1005.98
2016-10-20T04:05:31.593Z,1006
2016-10-20T04:06:31.600Z,1005.97
2016-10-20T04:07:31.607Z,1006
2016-10-20T04:08:31.662Z,1006
2016-10-20T04:09:31.620Z,1006.04
2016-10-20T04:10:31.627Z,1006.01
2016-10-20T04:11:31.634Z,1006
2016-10-20T04:12:31.641Z,1005.99
2016-10-20T04:13:31.699Z,1005.98
2016-10-20T04:14:31.656Z,1005.97
2016-10-20T04:15:31.711Z,1005.98
2016-10-20T04:16:31.669Z,1005.97
2016-10-20T04:17:31.675Z,1005.98
2016-10-20T04:18:31.683Z,1006.01
2016-10-20T04:19:31.688Z,1006.01
2016-10-20T04:20:31.695Z,1006.02
2016-10-20T04:21:31.753Z,1006.06
2016-10-20T04:22:31.708Z,1006.07
2016-10-20T04:23:31.714Z,1006.05
2016-10-20T04:24:31.722Z,1006.05
2016-10-20T04:25:31.729Z,1006.05
2016-10-20T04:26:31.735Z,1006.01
2016-10-20T04:27:31.742Z,1006.02
2016-10-20T04:28:31.750Z,1006.04
2016-10-20T04:29:31.758Z,1006.01
2016-10-20T04:30:31.763Z,1006.02
2016-10-20T04:31:31.770Z,1006.06
2016-10-20T04:32:31.777Z,1006.06
2016-10-20T04:33:31.782Z,1006.07
2016-10-20T04:34:31.789Z,1006.1
2016-10-20T04:35:31.796Z,1006.07
2016-10-20T04:36:31.803Z,1006.04
2016-10-20T04:37:31.860Z,1006.05
2016-10-20T04:38:31.816Z,1006.07
2016-10-20T04:39:31.823Z,1006.07
2016-10-20T04:40:31.830Z,1006.07
2016-10-20T04:41:31.888Z,1006.07
2016-10-20T04:42:31.844Z,1006.11
2016-10-20T04:43:31.850Z,1006.09
2016-10-20T04:44:31.857Z,1006.1
2016-10-20T04:45:31.863Z,1006.08
2016-10-20T04:46:31.870Z,1006.06
2016-10-20T04:47:31.877Z,1006.08
2016-10-20T04:48:31.884Z,1006.07
2016-10-20T04:49:31.889Z,1006.06
2016-10-20T04:50:31.896Z,1006.03
2016-10-20T04:51:31.902Z,1006.03
2016-10-20T04:52:31.909Z,1006
2016-10-20T04:53:31.916Z,1006.04
2016-10-20T04:54:31.923Z,1006.03
2016-10-20T04:55:31.928Z,1006.04
2016-10-20T04:56:31.935Z,1006.04
2016-10-20T04:57:31.942Z,1006.08
2016-10-20T04:58:31.999Z,1006.09
2016-10-20T04:59:31.956Z,1006.1
2016-10-20T05:00:31.962Z,1006.11
2016-10-20T05:01:32.018Z,1006.11
2016-10-20T05:02:31.974Z,1006.1
2016-10-20T05:03:31.981Z,1006.17
2016-10-20T05:04:31.989Z,1006.17
2016-10-20T05:05:31.995Z,1006.21
2016-10-20T05:06:32.002Z,1006.21
2016-10-20T05:07:32.009Z,1006.23
2016-10-20T05:08:32.016Z,1006.25
2016-10-20T05:09:32.022Z,1006.23
2016-10-20T05:10:32.029Z,1006.24
2016-10-20T05:11:32.036Z,1006.25
2016-10-20T05:12:32.043Z,1006.22
2016-10-20T05:13:32.100Z,1006.23
2016-10-20T05:14:32.056Z,1006.25
2016-10-20T05:15:32.062Z,1006.24
2016-10-20T05:16:32.070Z,1006.23
2016-10-20T05:17:32.126Z,1006.21
2016-10-20T05:18:32.083Z,1006.23
2016-10-20T05:19:32.090Z,1006.24
2016-10-20T05:20:32.097Z,1006.21
2016-10-20T05:21:32.103Z,1006.24
2016-10-20T05:22:32.159Z,1006.21
2016-10-20T05:23:32.119Z,1006.25
2016-10-20T05:24:32.124Z,1006.21
2016-10-20T05:25:32.131Z,1006.26
2016-10-20T05:26:32.139Z,1006.25
2016-10-20T05:27:32.144Z,1006.24
2016-10-20T05:28:32.201Z,1006.28
2016-10-20T05:29:32.155Z,1006.24
2016-10-20T05:30:32.164Z,1006.25
2016-10-20T05:31:32.172Z,1006.24
2016-10-20T05:32:32.177Z,1006.23
2016-10-20T05:33:32.234Z,1006.22
2016-10-20T05:34:32.192Z,1006.23
2016-10-20T05:35:32.196Z,1006.2
2016-10-20T05:36:32.213Z,1006.25
2016-10-20T05:37:32.211Z,1006.23
2016-10-20T05:38:32.269Z,1006.24
2016-10-20T05:39:32.223Z,1006.21
2016-10-20T05:40:32.231Z,1006.23
2016-10-20T05:41:32.239Z,1006.22
2016-10-20T05:42:32.246Z,1006.25
2016-10-20T05:43:32.301Z,1006.27
2016-10-20T05:44:32.259Z,1006.27
2016-10-20T05:45:32.266Z,1006.27
2016-10-20T05:46:32.322Z,1006.25
2016-10-20T05:47:32.328Z,1006.29
2016-10-20T05:48:32.286Z,1006.31
2016-10-20T05:49:32.293Z,1006.3
2016-10-20T05:50:32.297Z,1006.34
2016-10-20T05:51:32.305Z,1006.31
2016-10-20T05:52:32.364Z,1006.35
2016-10-20T05:53:32.320Z,1006.32
2016-10-20T05:54:32.326Z,1006.35
2016-10-20T05:55:32.333Z,1006.37
2016-10-20T05:56:32.389Z,1006.41
2016-10-20T05:57:32.346Z,1006.4
2016-10-20T05:58:32.404Z,1006.4
2016-10-20T05:59:32.358Z,1006.42
2016-10-20T06:00:32.416Z,1006.44
2016-10-20T06:01:32.371Z,1006.41
2016-10-20T06:02:32.379Z,1006.43
2016-10-20T06:03:32.385Z,1006.46
2016-10-20T06:04:32.393Z,1006.47
2016-10-20T06:05:32.396Z,1006.47
2016-10-20T06:06:32.405Z,1006.52
2016-10-20T06:07:32.413Z,1006.54
2016-10-20T06:08:32.418Z,1006.54
2016-10-20T06:09:32.425Z,1006.54
2016-10-20T06:10:32.431Z,1006.52
2016-10-20T06:11:32.441Z,1006.52
2016-10-20T06:12:32.444Z,1006.5
2016-10-20T06:13:32.450Z,1006.48
2016-10-20T06:14:32.509Z,1006.47
2016-10-20T06:15:32.466Z,1006.48
2016-10-20T06:16:32.772Z,1006.47
2016-10-20T06:17:32.477Z,1006.46
2016-10-20T06:18:32.485Z,1006.5
2016-10-20T06:19:32.542Z,1006.49
2016-10-20T06:20:32.499Z,1006.52
2016-10-20T06:21:32.555Z,1006.55
2016-10-20T06:22:32.513Z,1006.51
2016-10-20T06:23:32.518Z,1006.52
2016-10-20T06:24:32.526Z,1006.51
2016-10-20T06:25:32.532Z,1006.51
2016-10-20T06:26:32.538Z,1006.52
2016-10-20T06:27:32.546Z,1006.51
2016-10-20T06:28:32.602Z,1006.54
2016-10-20T06:29:32.559Z,1006.55
2016-10-20T06:30:32.565Z,1006.52
2016-10-20T06:31:32.572Z,1006.56
2016-10-20T06:32:32.580Z,1006.59
2016-10-20T06:33:32.586Z,1006.58
2016-10-20T06:34:32.592Z,1006.61
2016-10-20T06:35:32.599Z,1006.61
2016-10-20T06:36:32.606Z,1006.65
2016-10-20T06:37:32.662Z,1006.63
2016-10-20T06:38:32.619Z,1006.65
2016-10-20T06:39:32.677Z,1006.63
2016-10-20T06:40:32.636Z,1006.61
2016-10-20T06:41:32.639Z,1006.64
2016-10-20T06:42:32.696Z,1006.62
2016-10-20T06:43:32.655Z,1006.63
2016-10-20T06:44:32.660Z,1006.65
2016-10-20T06:45:32.667Z,1006.63
2016-10-20T06:46:32.723Z,1006.69
2016-10-20T06:47:32.681Z,1006.65
2016-10-20T06:48:32.687Z,1006.63
2016-10-20T06:49:32.693Z,1006.67
2016-10-20T06:50:32.702Z,1006.67
2016-10-20T06:51:32.707Z,1006.66
2016-10-20T06:52:32.713Z,1006.64
2016-10-20T06:53:32.719Z,1006.66
2016-10-20T06:54:32.727Z,1006.68
2016-10-20T06:55:32.734Z,1006.7
2016-10-20T06:56:32.740Z,1006.7
2016-10-20T06:57:32.797Z,1006.7
2016-10-20T06:58:32.754Z,1006.71
2016-10-20T06:59:32.761Z,1006.7
2016-10-20T07:00:32.766Z,1006.72
2016-10-20T07:01:32.774Z,1006.7
2016-10-20T07:02:32.781Z,1006.72
2016-10-20T07:03:32.787Z,1006.74
2016-10-20T07:04:32.844Z,1006.75
2016-10-20T07:05:32.801Z,1006.77
2016-10-20T07:06:32.877Z,1006.78
2016-10-20T07:07:32.813Z,1006.74
2016-10-20T07:08:32.870Z,1006.73
2016-10-20T07:09:32.827Z,1006.75
2016-10-20T07:10:32.834Z,1006.76
2016-10-20T07:11:32.840Z,1006.76
2016-10-20T07:12:32.845Z,1006.78
2016-10-20T07:13:32.854Z,1006.79
2016-10-20T07:14:32.861Z,1006.77
2016-10-20T07:15:32.918Z,1006.79
2016-10-20T07:16:32.874Z,1006.8
2016-10-20T07:17:32.934Z,1006.8
2016-10-20T07:18:32.887Z,1006.83
2016-10-20T07:19:32.944Z,1006.77
2016-10-20T07:20:32.900Z,1006.79
2016-10-20T07:21:32.907Z,1006.81
2016-10-20T07:22:32.913Z,1006.83
2016-10-20T07:23:32.919Z,1006.8
2016-10-20T07:24:32.975Z,1006.85
2016-10-20T07:25:32.933Z,1006.84
2016-10-20T07:26:32.940Z,1006.81
2016-10-20T07:27:32.996Z,1006.82
2016-10-20T07:28:32.953Z,1006.82
2016-10-20T07:29:32.959Z,1006.83
2016-10-20T07:30:32.966Z,1006.82
2016-10-20T07:31:32.973Z,1006.8
2016-10-20T07:32:32.978Z,1006.82
2016-10-20T07:33:32.984Z,1006.82
2016-10-20T07:34:32.992Z,1006.83
2016-10-20T07:35:32.999Z,1006.82
2016-10-20T07:36:33.005Z,1006.82
2016-10-20T07:37:33.011Z,1006.86
2016-10-20T07:38:33.019Z,1006.81
2016-10-20T07:39:33.026Z,1006.84
2016-10-20T07:40:33.033Z,1006.79
2016-10-20T07:41:33.039Z,1006.8
2016-10-20T07:42:33.045Z,1006.83
2016-10-20T07:43:33.052Z,1006.87
2016-10-20T07:44:33.059Z,1006.87
2016-10-20T07:45:33.065Z,1006.82
2016-10-20T07:46:33.125Z,1006.85
2016-10-20T07:47:33.129Z,1006.9
2016-10-20T07:48:33.087Z,1006.87
2016-10-20T07:49:33.093Z,1006.9
2016-10-20T07:50:33.108Z,1006.95
2016-10-20T07:51:33.107Z,1006.96
2016-10-20T07:52:33.114Z,1006.94
2016-10-20T07:53:33.121Z,1006.9
2016-10-20T07:54:33.177Z,1006.9
2016-10-20T07:55:33.135Z,1006.94
2016-10-20T07:56:33.192Z,1006.93
2016-10-20T07:57:33.149Z,1006.94
2016-10-20T07:58:33.155Z,1006.94
2016-10-20T07:59:33.162Z,1006.91
2016-10-20T08:00:33.170Z,1006.89
2016-10-20T08:01:33.176Z,1006.9
2016-10-20T08:02:33.233Z,1006.92
2016-10-20T08:03:33.241Z,1006.9
2016-10-20T08:04:33.200Z,1006.92
2016-10-20T08:05:33.204Z,1006.91
2016-10-20T08:06:33.262Z,1006.91
2016-10-20T08:07:33.220Z,1006.9
2016-10-20T08:08:33.225Z,1006.9
2016-10-20T08:09:33.232Z,1006.92
2016-10-20T08:10:33.241Z,1006.89
2016-10-20T08:11:33.248Z,1006.93
2016-10-20T08:12:33.253Z,1006.9
2016-10-20T08:13:33.312Z,1006.91
2016-10-20T08:14:33.269Z,1006.88
2016-10-20T08:15:33.274Z,1006.91
2016-10-20T08:16:33.282Z,1006.9
2016-10-20T08:17:33.290Z,1006.91
2016-10-20T08:18:33.349Z,1006.91
2016-10-20T08:19:33.305Z,1006.9
2016-10-20T08:20:33.312Z,1006.91
2016-10-20T08:21:33.368Z,1006.87
2016-10-20T08:22:33.326Z,1006.89
2016-10-20T08:23:33.332Z,1006.85
2016-10-20T08:24:33.340Z,1006.85
2016-10-20T08:25:33.347Z,1006.84
2016-10-20T08:26:33.358Z,1006.83
2016-10-20T08:27:33.363Z,1006.8
2016-10-20T08:28:35.422Z,1006.8
2016-10-20T08:29:33.376Z,1006.85
2016-10-20T08:30:33.385Z,1006.83
2016-10-20T08:31:33.391Z,1006.82
2016-10-20T08:32:33.398Z,1006.82
2016-10-20T08:33:33.407Z,1006.81
2016-10-20T08:34:33.463Z,1006.81
2016-10-20T08:35:33.420Z,1006.8
2016-10-20T08:36:33.428Z,1006.8
2016-10-20T08:37:33.437Z,1006.83
2016-10-20T08:38:33.443Z,1006.83
2016-10-20T08:39:33.450Z,1006.79
2016-10-20T08:40:33.458Z,1006.82
2016-10-20T08:41:33.465Z,1006.81
2016-10-20T08:42:33.522Z,1006.82
2016-10-20T08:43:33.479Z,1006.79
2016-10-20T08:44:33.487Z,1006.78
2016-10-20T08:45:33.495Z,1006.83
2016-10-20T08:46:33.502Z,1006.81
2016-10-20T08:47:33.509Z,1006.81
2016-10-20T08:48:33.517Z,1006.79
2016-10-20T08:49:33.573Z,1006.8
2016-10-20T08:50:33.533Z,1006.83
2016-10-20T08:51:33.540Z,1006.81
2016-10-20T08:52:33.547Z,1006.83
2016-10-20T08:53:33.555Z,1006.79
2016-10-20T08:54:33.611Z,1006.79
2016-10-20T08:55:33.569Z,1006.8
2016-10-20T08:56:33.575Z,1006.78
2016-10-20T08:57:33.582Z,1006.84
2016-10-20T08:58:33.642Z,1006.82
2016-10-20T08:59:33.600Z,1006.84
2016-10-20T09:00:33.606Z,1006.81
2016-10-20T09:01:33.613Z,1006.85
2016-10-20T09:02:33.821Z,1006.87
2016-10-20T09:03:33.629Z,1006.85
2016-10-20T09:04:33.635Z,1006.83
2016-10-20T09:05:33.643Z,1006.84
2016-10-20T09:06:33.650Z,1006.85
2016-10-20T09:07:33.757Z,1006.87
2016-10-20T09:08:33.665Z,1006.83
2016-10-20T09:09:33.723Z,1006.85
2016-10-20T09:10:33.680Z,1006.86
2016-10-20T09:11:33.687Z,1006.83
2016-10-20T09:12:33.694Z,1006.85
2016-10-20T09:13:33.702Z,1006.86
2016-10-20T09:14:33.710Z,1006.84
2016-10-20T09:15:33.716Z,1006.81
2016-10-20T09:16:33.774Z,1006.85
2016-10-20T09:17:33.782Z,1006.9
2016-10-20T09:18:33.749Z,1006.85
2016-10-20T09:19:33.745Z,1006.82
2016-10-20T09:20:33.753Z,1006.84
2016-10-20T09:21:33.761Z,1006.85
2016-10-20T09:22:33.768Z,1006.84
2016-10-20T09:23:33.776Z,1006.86
2016-10-20T09:24:33.783Z,1006.84
2016-10-20T09:25:33.803Z,1006.83
2016-10-20T09:26:33.849Z,1006.86
2016-10-20T09:27:34.056Z,1006.87
2016-10-20T09:28:33.815Z,1006.82
2016-10-20T09:29:33.821Z,1006.85
2016-10-20T09:30:33.827Z,1006.82
2016-10-20T09:31:33.837Z,1006.84
2016-10-20T09:32:33.843Z,1006.85
2016-10-20T09:33:33.852Z,1006.83
2016-10-20T09:34:33.859Z,1006.85
2016-10-20T09:35:33.865Z,1006.82
2016-10-20T09:36:33.872Z,1006.86
2016-10-20T09:37:33.931Z,1006.85
2016-10-20T09:38:33.888Z,1006.8
2016-10-20T09:39:33.946Z,1006.81
2016-10-20T09:40:33.902Z,1006.82
2016-10-20T09:41:33.958Z,1006.82
2016-10-20T09:42:33.918Z,1006.78
2016-10-20T09:43:33.930Z,1006.83
2016-10-20T09:44:33.932Z,1006.82
2016-10-20T09:45:33.988Z,1006.82
2016-10-20T09:46:33.997Z,1006.8
2016-10-20T09:47:33.955Z,1006.87
2016-10-20T09:48:33.962Z,1006.84
2016-10-20T09:49:33.971Z,1006.86
2016-10-20T09:50:33.976Z,1006.84
2016-10-20T09:51:33.982Z,1006.82
2016-10-20T09:52:33.991Z,1006.85
2016-10-20T09:53:33.999Z,1006.81
2016-10-20T09:54:34.007Z,1006.8
2016-10-20T09:55:34.061Z,1006.81
2016-10-20T09:56:34.019Z,1006.82
2016-10-20T09:57:34.027Z,1006.79
2016-10-20T09:58:34.033Z,1006.8
2016-10-20T09:59:34.041Z,1006.81
2016-10-20T10:00:34.048Z,1006.8
2016-10-20T10:01:34.055Z,1006.77
2016-10-20T10:02:34.111Z,1006.76
2016-10-20T10:03:34.118Z,1006.77
2016-10-20T10:04:34.127Z,1006.75
2016-10-20T10:05:34.083Z,1006.75
2016-10-20T10:06:34.138Z,1006.75
2016-10-20T10:07:34.097Z,1006.76
2016-10-20T10:08:34.103Z,1006.75
2016-10-20T10:09:34.111Z,1006.72
2016-10-20T10:10:34.116Z,1006.72
2016-10-20T10:11:34.125Z,1006.73
2016-10-20T10:12:34.132Z,1006.73
2016-10-20T10:13:34.137Z,1006.73
2016-10-20T10:14:34.145Z,1006.73
2016-10-20T10:15:34.152Z,1006.74
2016-10-20T10:16:34.159Z,1006.74
2016-10-20T10:17:34.166Z,1006.73
2016-10-20T10:18:34.223Z,1006.75
2016-10-20T10:19:34.179Z,1006.73
2016-10-20T10:20:34.237Z,1006.76
2016-10-20T10:21:34.193Z,1006.72
2016-10-20T10:22:34.201Z,1006.73
2016-10-20T10:23:34.207Z,1006.72
2016-10-20T10:24:34.214Z,1006.77
2016-10-20T10:25:34.271Z,1006.76
2016-10-20T10:26:34.226Z,1006.75
2016-10-20T10:27:34.235Z,1006.75
2016-10-20T10:29:34.247Z,1006.71
2016-10-20T10:30:34.255Z,1006.73
2016-10-20T10:31:34.262Z,1006.69
2016-10-20T10:32:34.270Z,1006.72
2016-10-20T10:33:34.276Z,1006.7
2016-10-20T10:34:34.335Z,1006.74
2016-10-20T10:35:34.339Z,1006.7
2016-10-20T10:36:34.296Z,1006.72
2016-10-20T10:37:34.305Z,1006.75
2016-10-20T10:38:34.311Z,1006.75
2016-10-20T10:39:34.318Z,1006.69
2016-10-20T10:40:34.325Z,1006.73
2016-10-20T10:41:34.332Z,1006.75
2016-10-20T10:42:34.340Z,1006.69
2016-10-20T10:43:34.347Z,1006.73
2016-10-20T10:44:34.354Z,1006.73
2016-10-20T10:45:34.362Z,1006.69
2016-10-20T10:46:34.368Z,1006.7
2016-10-20T10:47:34.375Z,1006.72
2016-10-20T10:48:34.383Z,1006.75
2016-10-20T10:49:34.440Z,1006.75
2016-10-20T10:50:34.448Z,1006.72
2016-10-20T10:51:34.404Z,1006.75
2016-10-20T10:52:34.462Z,1006.79
2016-10-20T10:53:34.419Z,1006.75
2016-10-20T10:54:34.427Z,1006.75
2016-10-20T10:55:34.435Z,1006.75
2016-10-20T10:56:34.490Z,1006.74
2016-10-20T10:57:34.447Z,1006.71
2016-10-20T10:58:34.455Z,1006.74
2016-10-20T10:59:34.462Z,1006.72
2016-10-20T11:00:34.470Z,1006.7
2016-10-20T11:01:34.727Z,1006.72
2016-10-20T11:02:34.485Z,1006.71
2016-10-20T11:03:34.492Z,1006.71
2016-10-20T11:04:34.498Z,1006.71
2016-10-20T11:05:34.506Z,1006.71
2016-10-20T11:06:34.514Z,1006.69
2016-10-20T11:07:34.521Z,1006.7
2016-10-20T11:08:34.527Z,1006.73
2016-10-20T11:09:34.536Z,1006.73
2016-10-20T11:10:34.542Z,1006.71
2016-10-20T11:11:34.551Z,1006.71
2016-10-20T11:12:34.557Z,1006.68
2016-10-20T11:13:34.564Z,1006.64
2016-10-20T11:14:34.571Z,1006.67
2016-10-20T11:15:34.578Z,1006.66
2016-10-20T11:16:34.585Z,1006.65
2016-10-20T11:17:34.595Z,1006.66
2016-10-20T11:18:34.602Z,1006.63
2016-10-20T11:19:34.607Z,1006.68
2016-10-20T11:20:34.665Z,1006.63
2016-10-20T11:21:34.673Z,1006.63
2016-10-20T11:22:34.679Z,1006.62
2016-10-20T11:23:34.637Z,1006.65
2016-10-20T11:24:34.647Z,1006.63
2016-10-20T11:25:34.652Z,1006.61
2016-10-20T11:26:34.756Z,1006.62
2016-10-20T11:27:34.717Z,1006.62
2016-10-20T11:28:34.674Z,1006.63
2016-10-20T11:29:34.682Z,1006.59
2016-10-20T11:30:34.688Z,1006.61
2016-10-20T11:31:34.745Z,1006.63
2016-10-20T11:32:34.703Z,1006.56
2016-10-20T11:33:34.709Z,1006.55
2016-10-20T11:34:34.767Z,1006.57
2016-10-20T11:35:34.725Z,1006.58
2016-10-20T11:36:34.732Z,1006.54
2016-10-20T11:37:34.789Z,1006.51
2016-10-20T11:38:34.797Z,1006.55
2016-10-20T11:39:34.755Z,1006.52
2016-10-20T11:40:34.763Z,1006.48
2016-10-20T11:41:34.769Z,1006.51
2016-10-20T11:42:34.777Z,1006.5
2016-10-20T11:43:34.784Z,1006.47
2016-10-20T11:44:34.841Z,1006.49
2016-10-20T11:45:34.799Z,1006.48
2016-10-20T11:46:34.806Z,1006.47
2016-10-20T11:47:34.814Z,1006.45
2016-10-20T11:48:34.871Z,1006.45
2016-10-20T11:49:34.828Z,1006.49
2016-10-20T11:50:34.886Z,1006.46
2016-10-20T11:51:34.843Z,1006.46
2016-10-20T11:52:34.851Z,1006.48
2016-10-20T11:53:34.908Z,1006.45
2016-10-20T11:54:34.917Z,1006.48
2016-10-20T11:55:34.872Z,1006.47
2016-10-20T11:56:34.930Z,1006.47
2016-10-20T11:57:34.888Z,1006.52
2016-10-20T11:58:34.895Z,1006.48
2016-10-20T11:59:34.953Z,1006.52
2016-10-20T12:00:34.960Z,1006.46
2016-10-20T12:01:34.919Z,1006.48
2016-10-20T12:02:34.927Z,1006.46
2016-10-20T12:03:34.933Z,1006.48
2016-10-20T12:04:34.941Z,1006.5
2016-10-20T12:05:34.950Z,1006.5
2016-10-20T12:06:34.955Z,1006.49
2016-10-20T12:07:35.012Z,1006.48
2016-10-20T12:08:34.971Z,1006.47
2016-10-20T12:09:34.978Z,1006.44
2016-10-20T12:10:34.985Z,1006.43